Time;durP1;ratioP1;P1;durP2;ratioP2;P2;SDS_P1;SDS_P2;PMS_P1;PMS_P2;Temp;Humidity;BMP_temperature;BMP_pressure;BME280_temperature;BME280_humidity;BME280_pressure;Samples;Min_cycle;Max_cycle;Signal;HPM_P1;HPM_P2
2023/01/13 00:00:19;;;;;;;;;;;;;;;8.61;100.00;99484.44;4951870;28;20286;-65
2023/01/13 00:02:45;;;;;;;;;;;;;;;8.60;100.00;99483.63;4970452;28;19922;-64
2023/01/13 00:05:10;;;;;;;;;;;;;;;8.53;100.00;99477.19;4987288;28;19922;-65
2023/01/13 00:07:35;;;;;;;;;;;;;;;8.56;100.00;99466.78;4983366;28;19924;-64
2023/01/13 00:10:00;;;;;;;;;;;;;;;8.58;100.00;99475.19;4991578;28;19918;-63
2023/01/13 00:12:25;;;;;;;;;;;;;;;8.59;100.00;99468.34;4999241;28;19922;-64
2023/01/13 00:14:51;;;;;;;;;;;;;;;8.60;100.00;99464.88;4991626;28;19922;-64
2023/01/13 00:17:16;;;;;;;;;;;;;;;8.66;100.00;99469.66;4997935;28;20389;-64
2023/01/13 00:19:41;;;;;;;;;;;;;;;8.60;100.00;99462.31;4991398;28;20073;-64
2023/01/13 00:22:06;;;;;;;;;;;;;;;8.62;100.00;99460.47;4997749;28;19921;-63
2023/01/13 00:24:32;;;;;;;;;;;;;;;8.67;100.00;99464.44;4989808;28;19969;-64
2023/01/13 00:26:57;;;;;;;;;;;;;;;8.56;100.00;99459.91;4992166;28;20353;-63
2023/01/13 00:29:22;;;;;;;;;;;;;;;8.58;100.00;99454.69;4989484;28;20452;-63
2023/01/13 00:31:48;;;;;;;;;;;;;;;8.61;100.00;99456.25;4996398;28;19971;-63
2023/01/13 00:34:13;;;;;;;;;;;;;;;8.58;100.00;99451.31;4992147;28;20297;-64
2023/01/13 00:36:39;;;;;;;;;;;;;;;8.56;100.00;99441.97;4985649;28;20016;-63
2023/01/13 00:39:04;;;;;;;;;;;;;;;8.56;100.00;99446.28;4988980;28;20333;-63
2023/01/13 00:43:21;;;;;;;;;;;;;;;8.65;100.00;99445.75;4968353;28;19933;-63
2023/01/13 00:44:14;;;;;;;;;;;;;;;8.60;100.00;99431.56;4981710;28;20013;-64
2023/01/13 00:46:39;;;;;;;;;;;;;;;8.58;100.00;99433.38;4974151;28;20017;-64
2023/01/13 00:49:05;;;;;;;;;;;;;;;8.62;100.00;99420.28;4973415;28;20215;-63
2023/01/13 00:51:30;;;;;;;;;;;;;;;8.60;100.00;99418.72;4976321;28;19957;-63
2023/01/13 00:53:56;;;;;;;;;;;;;;;8.59;100.00;99407.63;4974879;28;20393;-63
2023/01/13 00:56:22;;;;;;;;;;;;;;;8.62;100.00;99416.88;4974110;28;19923;-64
2023/01/13 00:58:47;;;;;;;;;;;;;;;8.67;100.00;99412.31;4974194;28;19919;-63
2023/01/13 01:01:14;;;;;;;;;;;;;;;8.68;100.00;99408.84;4971214;28;20004;-63
2023/01/13 01:03:40;;;;;;;;;;;;;;;8.75;100.00;99404.19;4970566;28;20347;-63
2023/01/13 01:06:12;;;;;;;;;;;;;;;8.70;100.00;99396.78;4973426;28;19922;-63
2023/01/13 01:08:38;;;;;;;;;;;;;;;8.76;100.00;99400.69;4974601;28;19918;-63
2023/01/13 01:11:07;;;;;;;;;;;;;;;8.76;100.00;99404.09;4975190;28;21223;-63
2023/01/13 01:13:33;;;;;;;;;;;;;;;8.75;100.00;99407.56;4975506;28;19922;-62
2023/01/13 01:15:58;;;;;;;;;;;;;;;8.76;100.00;99396.41;4974305;28;19929;-63
2023/01/13 01:18:24;;;;;;;;;;;;;;;8.78;100.00;99404.00;4974637;28;19922;-64
2023/01/13 01:20:49;;;;;;;;;;;;;;;8.73;100.00;99401.69;4970919;28;19933;-64
2023/01/13 01:23:14;;;;;;;;;;;;;;;8.76;100.00;99404.09;4976286;28;19918;-64
2023/01/13 01:25:39;;;;;;;;;;;;;;;8.83;100.00;99400.28;4973360;28;19926;-64
2023/01/13 01:28:05;;;;;;;;;;;;;;;8.82;100.00;99411.44;4974066;28;19965;-62
2023/01/13 01:30:30;;;;;;;;;;;;;;;8.77;100.00;99405.75;4967792;28;20348;-62
2023/01/13 01:32:56;;;;;;;;;;;;;;;8.79;100.00;99403.09;4981000;28;19925;-62
2023/01/13 01:35:21;;;;;;;;;;;;;;;8.88;100.00;99407.69;4974392;28;20366;-62
2023/01/13 01:37:46;;;;;;;;;;;;;;;8.85;100.00;99413.00;4973327;28;19925;-62
2023/01/13 01:40:12;;;;;;;;;;;;;;;8.80;100.00;99397.06;4964419;28;19922;-62
2023/01/13 01:45:25;;;;;;;;;;;;;;;8.77;100.00;99394.66;4974181;28;20415;-62
2023/01/13 01:47:54;;;;;;;;;;;;;;;8.87;100.00;99395.78;4972019;28;19925;-62
2023/01/13 01:50:19;;;;;;;;;;;;;;;8.88;100.00;99392.28;4965127;28;19929;-62
2023/01/13 01:52:48;;;;;;;;;;;;;;;8.81;100.00;99394.41;4971081;28;19918;-63
2023/01/13 01:55:18;;;;;;;;;;;;;;;8.83;100.00;99391.75;4973466;28;20356;-62
2023/01/13 01:57:47;;;;;;;;;;;;;;;8.83;100.00;99390.00;4972874;28;19918;-62
2023/01/13 02:00:13;;;;;;;;;;;;;;;8.75;100.00;99386.25;4976561;28;19918;-62
2023/01/13 02:02:39;;;;;;;;;;;;;;;8.72;100.00;99382.94;4968417;28;20293;-62
2023/01/13 02:05:05;;;;;;;;;;;;;;;8.72;100.00;99377.00;4966374;28;19957;-63
2023/01/13 02:07:33;;;;;;;;;;;;;;;8.69;100.00;99377.97;4973934;28;19965;-62
2023/01/13 02:10:01;;;;;;;;;;;;;;;8.70;100.00;99369.38;4973321;28;19918;-62
2023/01/13 02:12:31;;;;;;;;;;;;;;;8.64;100.00;99366.34;4982234;28;20409;-62
2023/01/13 02:14:58;;;;;;;;;;;;;;;8.63;100.00;99369.81;4991735;28;20326;-62
2023/01/13 02:17:47;;;;;;;;;;;;;;;8.56;100.00;99372.75;4998001;28;19952;-62
2023/01/13 02:20:23;;;;;;;;;;;;;;;8.62;100.00;99365.63;4988473;28;19929;-62
2023/01/13 02:23:07;;;;;;;;;;;;;;;8.65;100.00;99361.13;5005061;28;19964;-61
2023/01/13 02:25:56;;;;;;;;;;;;;;;8.66;100.00;99362.78;4987423;28;20399;-62
2023/01/13 02:28:27;;;;;;;;;;;;;;;8.74;100.00;99359.75;5011429;28;20010;-62
2023/01/13 02:33:51;;;;;;;;;;;;;;;8.72;100.00;99357.31;4992089;28;19972;-62
2023/01/13 02:36:25;;;;;;;;;;;;;;;8.71;100.00;99363.34;5023607;28;20008;-63
2023/01/13 02:39:01;;;;;;;;;;;;;;;8.67;100.00;99351.63;4991306;28;20274;-63
2023/01/13 02:44:19;;;;;;;;;;;;;;;8.71;100.00;99342.00;5000962;28;19976;-63
2023/01/13 02:46:51;;;;;;;;;;;;;;;8.65;100.00;99332.94;4992304;28;19921;-63
2023/01/13 02:49:36;;;;;;;;;;;;;;;8.66;100.00;99334.59;4992395;28;20369;-63
2023/01/13 02:52:06;;;;;;;;;;;;;;;8.68;100.00;99339.63;5013610;28;19972;-63
2023/01/13 02:54:34;;;;;;;;;;;;;;;8.69;100.00;99343.84;4991344;28;19987;-63
2023/01/13 02:57:00;;;;;;;;;;;;;;;8.67;100.00;99336.25;4992415;28;19944;-64
2023/01/13 02:59:26;;;;;;;;;;;;;;;8.69;100.00;99338.72;4991110;28;20370;-64
2023/01/13 03:01:54;;;;;;;;;;;;;;;8.72;100.00;99336.78;5023406;28;19932;-63
2023/01/13 03:04:38;;;;;;;;;;;;;;;8.72;100.00;99329.09;5000772;28;20590;-63
2023/01/13 03:07:11;;;;;;;;;;;;;;;8.75;100.00;99337.53;4996480;28;19918;-63
2023/01/13 03:09:43;;;;;;;;;;;;;;;8.72;100.00;99338.53;4990915;28;19924;-63
2023/01/13 03:12:16;;;;;;;;;;;;;;;8.75;100.00;99334.97;5017752;28;19924;-63
2023/01/13 03:14:49;;;;;;;;;;;;;;;8.85;100.00;99336.06;4991081;28;20404;-63
2023/01/13 03:17:30;;;;;;;;;;;;;;;8.87;100.00;99334.25;4992239;28;19991;-63
2023/01/13 03:20:04;;;;;;;;;;;;;;;8.87;100.00;99329.09;4992916;28;19945;-64
2023/01/13 03:22:29;;;;;;;;;;;;;;;8.86;100.00;99318.00;4998403;28;19922;-63
2023/01/13 03:25:07;;;;;;;;;;;;;;;8.85;100.00;99321.47;4993683;28;19968;-65
2023/01/13 03:27:38;;;;;;;;;;;;;;;8.85;100.00;99312.97;5023678;28;19945;-63
2023/01/13 03:30:06;;;;;;;;;;;;;;;8.90;100.00;99310.16;4987742;28;19918;-64
2023/01/13 03:32:35;;;;;;;;;;;;;;;8.86;100.00;99305.19;5010755;28;20288;-63
2023/01/13 03:35:23;;;;;;;;;;;;;;;8.90;100.00;99305.00;4997927;28;20012;-64
2023/01/13 03:37:55;;;;;;;;;;;;;;;8.97;100.00;99309.69;4994338;28;20004;-63
2023/01/13 03:40:24;;;;;;;;;;;;;;;8.94;100.00;99304.72;4990324;28;20374;-63
2023/01/13 03:45:39;;;;;;;;;;;;;;;8.96;100.00;99302.88;4996938;28;20008;-63
2023/01/13 03:48:10;;;;;;;;;;;;;;;9.02;100.00;99297.38;4998717;28;20338;-64
2023/01/13 03:50:55;;;;;;;;;;;;;;;9.05;100.00;99301.50;4995728;28;19951;-64
2023/01/13 03:53:25;;;;;;;;;;;;;;;9.06;100.00;99300.59;5003983;28;19918;-64
2023/01/13 03:55:54;;;;;;;;;;;;;;;9.09;100.00;99295.28;4996354;28;19976;-70
2023/01/13 03:58:41;;;;;;;;;;;;;;;9.06;100.00;99292.09;4996216;28;19968;-64
2023/01/13 04:01:19;;;;;;;;;;;;;;;9.07;100.00;99296.28;4976697;28;20016;-63
2023/01/13 04:03:59;;;;;;;;;;;;;;;8.94;100.00;99294.47;4983766;28;20358;-64
2023/01/13 04:06:37;;;;;;;;;;;;;;;8.95;100.00;99287.59;4973942;28;20782;-62
2023/01/13 04:09:22;;;;;;;;;;;;;;;9.01;100.00;99293.16;4973989;28;19993;-63
2023/01/13 04:11:56;;;;;;;;;;;;;;;8.97;100.00;99296.03;4992347;28;19932;-63
2023/01/13 04:14:23;;;;;;;;;;;;;;;8.85;100.00;99295.84;4977258;28;19944;-63
2023/01/13 04:16:48;;;;;;;;;;;;;;;8.74;100.00;99293.09;4981182;28;19928;-62
2023/01/13 04:19:14;;;;;;;;;;;;;;;8.72;100.00;99277.00;4979456;28;20449;-64
2023/01/13 04:21:39;;;;;;;;;;;;;;;8.68;100.00;99283.22;4980127;28;19925;-64
2023/01/13 04:24:04;;;;;;;;;;;;;;;8.67;100.00;99284.97;4980981;28;19922;-63
2023/01/13 04:26:29;;;;;;;;;;;;;;;8.68;100.00;99278.06;4974540;28;19922;-64
2023/01/13 04:28:55;;;;;;;;;;;;;;;8.75;100.00;99281.13;4975115;28;19981;-63
2023/01/13 04:31:20;;;;;;;;;;;;;;;8.74;100.00;99285.41;4985288;28;19921;-64
2023/01/13 04:33:45;;;;;;;;;;;;;;;8.79;100.00;99278.25;4986193;28;19918;-63
2023/01/13 04:36:10;;;;;;;;;;;;;;;8.87;100.00;99288.06;4974818;28;19926;-64
2023/01/13 04:38:36;;;;;;;;;;;;;;;8.93;100.00;99274.88;4974938;28;20394;-63
2023/01/13 04:41:01;;;;;;;;;;;;;;;8.93;100.00;99276.59;4979054;28;19999;-63
2023/01/13 04:43:26;;;;;;;;;;;;;;;8.95;100.00;99272.22;4990866;28;19929;-63
2023/01/13 04:45:51;;;;;;;;;;;;;;;8.96;100.00;99274.69;4974099;28;19933;-63
2023/01/13 04:48:17;;;;;;;;;;;;;;;8.95;100.00;99278.16;4974745;28;19972;-62
2023/01/13 04:50:42;;;;;;;;;;;;;;;9.00;100.00;99276.13;4975090;28;19932;-63
2023/01/13 04:53:07;;;;;;;;;;;;;;;8.87;100.00;99270.94;4984138;28;19918;-62
2023/01/13 04:55:32;;;;;;;;;;;;;;;8.86;100.00;99276.97;4974768;28;20022;-64
2023/01/13 04:58:08;;;;;;;;;;;;;;;8.79;100.00;99273.13;4974112;28;19918;-63
2023/01/13 05:00:34;;;;;;;;;;;;;;;8.74;100.00;99282.84;4976920;28;19931;-63
2023/01/13 05:02:59;;;;;;;;;;;;;;;8.76;100.00;99280.19;5004574;28;20028;-63
2023/01/13 05:05:28;;;;;;;;;;;;;;;8.72;100.00;99282.13;4992935;28;20356;-65
2023/01/13 05:07:53;;;;;;;;;;;;;;;8.67;100.00;99281.56;4992721;28;19972;-62
2023/01/13 05:10:18;;;;;;;;;;;;;;;8.65;100.00;99288.53;4988747;28;19924;-62
2023/01/13 05:18:13;;;;;;;;;;;;;;;8.47;100.00;99298.97;4993825;28;20348;-65
2023/01/13 05:20:38;;;;;;;;;;;;;;;8.54;100.00;99320.72;4993938;28;19921;-62
2023/01/13 05:25:49;;;;;;;;;;;;;;;8.38;100.00;99337.91;4994355;28;19925;-63
2023/01/13 05:28:14;;;;;;;;;;;;;;;8.30;100.00;99351.16;4992165;28;19960;-63
2023/01/13 05:30:44;;;;;;;;;;;;;;;8.29;100.00;99357.19;4993773;28;20313;-63
2023/01/13 05:33:10;;;;;;;;;;;;;;;8.35;100.00;99367.09;5003545;28;19925;-65
2023/01/13 05:35:37;;;;;;;;;;;;;;;8.36;100.00;99360.22;4992069;28;19924;-64
2023/01/13 05:38:02;;;;;;;;;;;;;;;8.29;100.00;99370.00;4993107;28;19922;-63
2023/01/13 05:43:24;;;;;;;;;;;;;;;8.08;100.00;99364.34;5013613;28;19972;-63
2023/01/13 05:45:49;;;;;;;;;;;;;;;7.84;100.00;99359.69;4991961;28;19922;-64
2023/01/13 05:48:15;;;;;;;;;;;;;;;7.89;100.00;99359.44;4993372;28;20276;-64
2023/01/13 05:50:40;;;;;;;;;;;;;;;7.84;100.00;99362.25;4990463;28;19921;-63
2023/01/13 05:53:06;;;;;;;;;;;;;;;7.84;100.00;99369.06;5014353;28;20009;-64
2023/01/13 05:55:31;;;;;;;;;;;;;;;7.86;100.00;99374.94;5006134;28;19918;-64
2023/01/13 05:57:56;;;;;;;;;;;;;;;7.83;100.00;99375.13;5004900;28;19957;-64
2023/01/13 06:00:21;;;;;;;;;;;;;;;7.88;100.00;99381.63;5001636;28;19922;-64
2023/01/13 06:02:46;;;;;;;;;;;;;;;7.90;100.00;99373.88;5038333;28;20327;-64
2023/01/13 06:05:12;;;;;;;;;;;;;;;7.81;100.00;99367.50;5012408;28;20044;-64
2023/01/13 06:07:37;;;;;;;;;;;;;;;7.84;100.00;99371.63;4992210;28;20310;-64
2023/01/13 06:10:02;;;;;;;;;;;;;;;7.84;100.00;99372.50;4991943;28;19929;-64
2023/01/13 06:12:28;;;;;;;;;;;;;;;7.74;100.00;99394.38;5027035;28;19921;-65
2023/01/13 06:14:53;;;;;;;;;;;;;;;7.66;100.00;99397.34;4998491;28;19922;-64
2023/01/13 06:17:18;;;;;;;;;;;;;;;7.60;100.00;99405.34;4993316;28;19917;-65
2023/01/13 06:19:43;;;;;;;;;;;;;;;7.61;100.00;99395.94;4993475;28;19945;-64
2023/01/13 06:22:15;;;;;;;;;;;;;;;7.56;100.00;99383.38;4999858;28;19925;-64
2023/01/13 06:24:40;;;;;;;;;;;;;;;7.39;100.00;99369.78;5009242;28;19921;-65
2023/01/13 06:27:06;;;;;;;;;;;;;;;7.38;100.00;99374.94;5001291;28;19917;-64
2023/01/13 06:29:32;;;;;;;;;;;;;;;7.36;100.00;99372.47;5008016;28;19918;-64
2023/01/13 06:31:58;;;;;;;;;;;;;;;7.35;100.00;99344.41;5008068;28;19928;-63
2023/01/13 06:34:23;;;;;;;;;;;;;;;7.27;100.00;99332.84;5008353;28;19917;-63
2023/01/13 06:36:51;;;;;;;;;;;;;;;7.26;100.00;99372.13;5002977;28;19917;-63
2023/01/13 06:39:17;;;;;;;;;;;;;;;7.23;100.00;99379.97;5008039;28;19968;-63
2023/01/13 06:44:27;;;;;;;;;;;;;;;7.16;100.00;99386.31;5005411;28;19976;-64
2023/01/13 06:46:52;;;;;;;;;;;;;;;7.12;100.00;99374.59;5005509;28;19956;-63
2023/01/13 06:49:18;;;;;;;;;;;;;;;7.14;100.00;99383.00;5005171;28;20373;-64
2023/01/13 06:51:43;;;;;;;;;;;;;;;7.17;100.00;99362.41;5022661;28;19921;-63
2023/01/13 06:54:08;;;;;;;;;;;;;;;7.17;100.00;99387.13;5010781;28;19945;-64
2023/01/13 06:56:33;;;;;;;;;;;;;;;7.16;100.00;99370.97;5006314;28;19965;-64
2023/01/13 06:58:58;;;;;;;;;;;;;;;7.20;100.00;99375.00;4998950;28;19918;-63
2023/01/13 07:01:24;;;;;;;;;;;;;;;7.16;100.00;99383.75;5023592;28;19921;-63
2023/01/13 07:03:49;;;;;;;;;;;;;;;7.24;100.00;99373.13;5021929;28;19925;-64
2023/01/13 07:06:14;;;;;;;;;;;;;;;7.21;100.00;99370.75;5007143;28;19925;-63
2023/01/13 07:08:39;;;;;;;;;;;;;;;7.23;100.00;99368.91;5008939;28;19922;-63
2023/01/13 07:11:05;;;;;;;;;;;;;;;7.17;100.00;99380.31;5018879;28;19932;-63
2023/01/13 07:16:14;;;;;;;;;;;;;;;7.16;100.00;99383.75;5014395;28;19925;-64
2023/01/13 07:18:39;;;;;;;;;;;;;;;7.13;100.00;99386.47;5013911;28;19925;-63
2023/01/13 07:21:05;;;;;;;;;;;;;;;7.01;100.00;99399.88;5021098;28;19931;-63
2023/01/13 07:23:32;;;;;;;;;;;;;;;6.98;100.00;99405.97;5019903;28;20008;-63
2023/01/13 07:25:58;;;;;;;;;;;;;;;6.87;100.00;99421.03;5012654;28;19924;-64
2023/01/13 07:28:24;;;;;;;;;;;;;;;6.74;100.00;99408.88;5011952;28;19918;-64
2023/01/13 07:30:50;;;;;;;;;;;;;;;6.74;100.00;99426.75;5011025;28;19932;-63
2023/01/13 07:33:17;;;;;;;;;;;;;;;6.67;100.00;99429.69;5022183;28;20281;-65
2023/01/13 07:35:42;;;;;;;;;;;;;;;6.70;100.00;99437.19;5008009;28;20064;-64
2023/01/13 07:38:07;;;;;;;;;;;;;;;6.61;100.00;99431.66;5011141;28;19960;-64
2023/01/13 07:40:33;;;;;;;;;;;;;;;6.68;100.00;99431.34;5012537;28;19921;-63
2023/01/13 07:45:42;;;;;;;;;;;;;;;6.67;100.00;99439.91;5013791;28;20025;-64
2023/01/13 07:48:07;;;;;;;;;;;;;;;6.76;100.00;99452.22;5011563;28;20000;-63
2023/01/13 07:50:32;;;;;;;;;;;;;;;6.82;100.00;99458.78;4994230;28;20260;-63
2023/01/13 07:52:58;;;;;;;;;;;;;;;6.92;100.00;99462.53;5019809;28;20391;-64
2023/01/13 07:55:23;;;;;;;;;;;;;;;6.87;100.00;99464.50;5007731;28;19967;-63
2023/01/13 07:57:48;;;;;;;;;;;;;;;6.88;100.00;99464.41;5008896;28;19928;-65
2023/01/13 08:00:14;;;;;;;;;;;;;;;6.92;100.00;99465.94;4987400;28;19913;-64
2023/01/13 08:02:39;;;;;;;;;;;;;;;6.90;100.00;99467.72;5011292;28;19928;-64
2023/01/13 08:05:04;;;;;;;;;;;;;;;6.99;100.00;99463.06;5010493;28;20392;-64
2023/01/13 08:07:30;;;;;;;;;;;;;;;7.10;100.00;99453.13;5007560;28;19922;-64
2023/01/13 08:09:55;;;;;;;;;;;;;;;7.21;100.00;99450.84;5009096;28;19921;-65
2023/01/13 08:15:04;;;;;;;;;;;;;;;7.21;100.00;99466.19;4982731;28;19925;-63
2023/01/13 08:17:29;;;;;;;;;;;;;;;7.20;100.00;99472.22;5014937;28;19921;-64
2023/01/13 08:19:55;;;;;;;;;;;;;;;7.27;100.00;99471.00;5006649;28;20369;-64
2023/01/13 08:22:21;;;;;;;;;;;;;;;7.44;100.00;99471.84;5028038;28;19999;-65
2023/01/13 08:24:46;;;;;;;;;;;;;;;7.47;100.00;99476.00;5002461;28;19979;-64
2023/01/13 08:27:12;;;;;;;;;;;;;;;7.50;100.00;99470.72;4997322;28;20369;-65
2023/01/13 08:29:37;;;;;;;;;;;;;;;7.57;100.00;99480.56;5004027;28;19917;-64
2023/01/13 08:32:02;;;;;;;;;;;;;;;7.64;100.00;99482.81;5020456;28;20479;-64
2023/01/13 08:34:28;;;;;;;;;;;;;;;7.73;100.00;99472.91;5005023;28;19917;-64
2023/01/13 08:36:53;;;;;;;;;;;;;;;7.67;100.00;99482.66;4999005;28;20281;-66
2023/01/13 08:39:18;;;;;;;;;;;;;;;7.76;100.00;99479.59;5004747;28;20365;-64
2023/01/13 08:41:57;;;;;;;;;;;;;;;7.72;100.00;99483.25;5016117;28;19952;-65
2023/01/13 08:44:23;;;;;;;;;;;;;;;7.70;100.00;99485.88;4994231;28;19921;-65
2023/01/13 08:46:48;;;;;;;;;;;;;;;7.64;100.00;99487.91;5004894;28;19968;-65
2023/01/13 08:49:14;;;;;;;;;;;;;;;7.60;100.00;99479.56;5010996;28;20331;-63
2023/01/13 08:51:39;;;;;;;;;;;;;;;7.49;100.00;99482.72;5014590;28;19932;-64
2023/01/13 08:54:04;;;;;;;;;;;;;;;7.37;100.00;99485.91;5014469;28;19921;-64
2023/01/13 08:56:29;;;;;;;;;;;;;;;7.37;100.00;99481.59;5006322;28;19922;-63
2023/01/13 08:58:58;;;;;;;;;;;;;;;7.41;100.00;99495.88;4998294;28;20372;-64
2023/01/13 09:01:23;;;;;;;;;;;;;;;7.42;100.00;99500.09;5009795;28;20336;-67
2023/01/13 09:03:49;;;;;;;;;;;;;;;7.55;100.00;99502.03;5013035;28;19918;-65
2023/01/13 09:06:14;;;;;;;;;;;;;;;7.73;100.00;99507.94;4998861;28;19918;-63
2023/01/13 09:08:39;;;;;;;;;;;;;;;7.95;100.00;99507.63;4997811;28;19928;-63
2023/01/13 09:13:10;;;;;;;;;;;;;;;8.24;100.00;99507.78;5004672;28;19995;-63
2023/01/13 09:13:50;;;;;;;;;;;;;;;9.29;100.00;99521.63;5015283;28;20575;-70
2023/01/13 09:16:16;;;;;;;;;;;;;;;10.79;100.00;99515.06;5001726;28;19930;-64
2023/01/13 09:18:41;;;;;;;;;;;;;;;11.76;100.00;99521.50;5004933;28;19930;-65
2023/01/13 09:21:08;;;;;;;;;;;;;;;13.35;100.00;99526.56;5009163;28;19925;-65
2023/01/13 09:23:33;;;;;;;;;;;;;;;13.70;98.50;99536.00;5007201;28;20409;-66
2023/01/13 09:25:58;;;;;;;;;;;;;;;14.99;90.74;99552.66;5001939;28;19965;-64
2023/01/13 09:28:23;;;;;;;;;;;;;;;14.45;88.76;99555.19;5004924;28;19921;-65
2023/01/13 09:30:49;;;;;;;;;;;;;;;14.74;88.48;99565.00;5009224;28;19928;-65
2023/01/13 09:35:59;;;;;;;;;;;;;;;15.45;75.23;99566.97;4996915;28;20386;-66
2023/01/13 09:38:25;;;;;;;;;;;;;;;15.32;71.80;99580.13;5029116;28;19968;-65
2023/01/13 09:40:50;;;;;;;;;;;;;;;15.33;72.05;99578.34;5010862;28;19980;-66
2023/01/13 09:49:04;;;;;;;;;;;;;;;18.25;54.39;99575.19;4994882;28;19924;-67
2023/01/13 09:51:30;;;;;;;;;;;;;;;18.76;51.00;99591.16;5015109;28;19921;-64
2023/01/13 09:53:58;;;;;;;;;;;;;;;18.36;50.34;99574.97;5015304;28;19921;-66
2023/01/13 09:56:24;;;;;;;;;;;;;;;18.61;50.65;99580.44;5001114;28;19918;-65
2023/01/13 09:58:50;;;;;;;;;;;;;;;17.68;50.11;99581.31;4999017;28;19971;-65
2023/01/13 10:01:23;;;;;;;;;;;;;;;18.39;49.61;99559.09;5002615;28;20422;-65
2023/01/13 10:03:48;;;;;;;;;;;;;;;19.65;46.96;99565.88;5003061;28;20377;-64
2023/01/13 10:06:23;;;;;;;;;;;;;;;19.60;44.91;99570.75;4992223;28;19929;-64
2023/01/13 10:08:49;;;;;;;;;;;;;;;19.14;44.41;99576.19;4995092;28;19937;-64
2023/01/13 10:14:08;;;;;;;;;;;;;;;16.75;50.73;99576.66;4998606;28;20400;-65
2023/01/13 10:16:40;;;;;;;;;;;;;;;14.91;66.51;99586.94;4996913;28;20012;-64
2023/01/13 10:19:15;;;;;;;;;;;;;;;13.31;84.39;99597.47;4996011;28;20396;-64
2023/01/13 10:21:40;;;;;;;;;;;;;;;11.83;96.36;99595.81;5011030;28;20031;-67
2023/01/13 10:24:20;;;;;;;;;;;;;;;11.03;100.00;99592.44;4999964;28;20017;-64
2023/01/13 10:26:48;;;;;;;;;;;;;;;10.81;100.00;99590.41;4997658;28;19975;-65
2023/01/13 10:29:19;;;;;;;;;;;;;;;10.93;100.00;99591.38;5002136;28;19921;-65
2023/01/13 10:31:44;;;;;;;;;;;;;;;10.90;100.00;99594.97;5005301;28;19972;-64
2023/01/13 10:34:10;;;;;;;;;;;;;;;10.31;100.00;99596.00;4993784;28;19922;-64
2023/01/13 10:36:36;;;;;;;;;;;;;;;10.04;100.00;99601.09;4998247;28;20412;-64
2023/01/13 10:39:09;;;;;;;;;;;;;;;9.81;100.00;99607.59;5000992;28;19951;-64
2023/01/13 10:41:35;;;;;;;;;;;;;;;9.21;100.00;99611.91;5005460;28;20016;-63
2023/01/13 10:44:00;;;;;;;;;;;;;;;8.86;100.00;99615.53;5006451;28;19975;-63
2023/01/13 10:46:26;;;;;;;;;;;;;;;8.59;100.00;99599.91;5001287;28;20046;-64
2023/01/13 10:48:54;;;;;;;;;;;;;;;8.51;100.00;99602.09;4987353;28;19925;-64
2023/01/13 10:51:27;;;;;;;;;;;;;;;8.44;100.00;99601.53;5004538;28;19921;-63
2023/01/13 10:53:52;;;;;;;;;;;;;;;8.41;100.00;99594.03;5009501;28;19917;-64
2023/01/13 10:56:18;;;;;;;;;;;;;;;8.33;100.00;99591.03;5001364;28;19918;-64
2023/01/13 10:58:44;;;;;;;;;;;;;;;8.37;100.00;99587.38;5000064;28;20365;-63
2023/01/13 11:01:17;;;;;;;;;;;;;;;8.43;100.00;99581.94;5023040;28;20076;-63
2023/01/13 11:03:45;;;;;;;;;;;;;;;8.45;100.00;99589.56;5009059;28;20500;-63
2023/01/13 11:06:18;;;;;;;;;;;;;;;8.51;100.00;99591.81;5011364;28;19921;-64
2023/01/13 11:08:45;;;;;;;;;;;;;;;8.53;100.00;99583.13;5035528;28;19925;-63
2023/01/13 11:11:22;;;;;;;;;;;;;;;8.67;100.00;99581.53;5004789;28;20013;-64
2023/01/13 11:16:34;;;;;;;;;;;;;;;8.78;100.00;99591.22;5014370;28;19924;-64
2023/01/13 11:19:12;;;;;;;;;;;;;;;8.74;100.00;99592.31;5011450;28;19925;-64
2023/01/13 11:21:37;;;;;;;;;;;;;;;8.77;100.00;99587.84;5028365;28;19921;-66
2023/01/13 11:24:12;;;;;;;;;;;;;;;8.70;100.00;99589.06;5020264;28;19944;-64
2023/01/13 11:26:43;;;;;;;;;;;;;;;8.73;100.00;99586.31;5012225;28;19924;-65
2023/01/13 11:29:21;;;;;;;;;;;;;;;8.74;100.00;99587.16;5012453;28;19925;-63
2023/01/13 11:31:52;;;;;;;;;;;;;;;8.78;100.00;99584.38;5015237;28;19925;-64
2023/01/13 11:34:18;;;;;;;;;;;;;;;8.85;100.00;99582.28;5004734;28;19917;-64
2023/01/13 11:36:45;;;;;;;;;;;;;;;8.82;100.00;99587.56;5005373;28;19924;-63
2023/01/13 11:39:20;;;;;;;;;;;;;;;8.75;100.00;99586.25;5001887;28;20023;-64
2023/01/13 11:42:19;;;;;;;;;;;;;;;8.69;100.00;99583.09;5018476;28;20314;-64
2023/01/13 11:45:02;;;;;;;;;;;;;;;8.78;100.00;99589.50;5003195;28;20393;-64
2023/01/13 11:47:28;;;;;;;;;;;;;;;8.82;100.00;99588.41;4991580;28;19921;-64
2023/01/13 11:49:54;;;;;;;;;;;;;;;8.61;100.00;99585.28;5000171;28;20366;-64
2023/01/13 11:52:26;;;;;;;;;;;;;;;8.65;100.00;99585.94;5027557;28;20391;-63
2023/01/13 11:55:05;;;;;;;;;;;;;;;8.65;100.00;99594.44;4999832;28;19945;-64
2023/01/13 11:57:36;;;;;;;;;;;;;;;8.76;100.00;99608.41;5003723;28;19922;-64
2023/01/13 12:00:13;;;;;;;;;;;;;;;8.78;100.00;99598.91;4994103;28;19925;-64
2023/01/13 12:02:51;;;;;;;;;;;;;;;8.83;100.00;99602.88;4976158;28;19923;-63
2023/01/13 12:05:22;;;;;;;;;;;;;;;9.12;100.00;99602.16;4969919;28;19918;-64
2023/01/13 12:07:56;;;;;;;;;;;;;;;9.42;100.00;99601.34;4975530;28;19918;-64
2023/01/13 12:10:38;;;;;;;;;;;;;;;9.52;100.00;99605.81;4970251;28;19931;-64
2023/01/13 12:13:06;;;;;;;;;;;;;;;9.43;100.00;99608.94;4997390;28;20057;-63
2023/01/13 12:15:37;;;;;;;;;;;;;;;8.81;100.00;99616.69;4973066;28;19921;-64
2023/01/13 12:18:21;;;;;;;;;;;;;;;8.17;100.00;99614.88;4997019;28;19922;-64
2023/01/13 12:21:11;;;;;;;;;;;;;;;7.83;100.00;99615.81;4977000;28;20438;-63
2023/01/13 12:23:56;;;;;;;;;;;;;;;7.85;100.00;99588.38;4988336;28;19922;-63
2023/01/13 12:26:22;;;;;;;;;;;;;;;8.04;100.00;99565.22;4975449;28;19940;-64
2023/01/13 12:28:47;;;;;;;;;;;;;;;8.14;100.00;99552.75;4975325;28;20400;-63
2023/01/13 12:31:15;;;;;;;;;;;;;;;8.37;100.00;99541.25;4983438;28;20012;-65
2023/01/13 12:33:40;;;;;;;;;;;;;;;8.49;100.00;99555.19;4979800;28;20001;-65
2023/01/13 12:36:10;;;;;;;;;;;;;;;8.54;100.00;99556.56;4974526;28;20036;-64
2023/01/13 12:38:39;;;;;;;;;;;;;;;8.58;100.00;99572.63;4989790;28;19945;-63
2023/01/13 12:41:09;;;;;;;;;;;;;;;8.66;100.00;99573.03;4981330;28;19925;-62
2023/01/13 12:46:20;;;;;;;;;;;;;;;8.94;100.00;99586.88;4974102;28;20353;-62
2023/01/13 12:48:58;;;;;;;;;;;;;;;9.25;100.00;99579.19;4974518;28;19958;-62
2023/01/13 12:51:27;;;;;;;;;;;;;;;9.61;100.00;99586.50;5009238;28;19930;-63
2023/01/13 12:53:53;;;;;;;;;;;;;;;9.94;100.00;99585.41;4992466;28;19917;-63
2023/01/13 12:56:18;;;;;;;;;;;;;;;10.14;100.00;99586.75;4993609;28;19949;-63
2023/01/13 12:58:44;;;;;;;;;;;;;;;10.15;100.00;99593.56;4993792;28;19949;-62
2023/01/13 13:01:10;;;;;;;;;;;;;;;9.98;100.00;99591.19;4993876;28;20330;-62
2023/01/13 13:03:35;;;;;;;;;;;;;;;9.97;100.00;99587.81;5012667;28;19925;-65
2023/01/13 13:06:05;;;;;;;;;;;;;;;10.09;100.00;99587.97;4993672;28;20008;-64
2023/01/13 13:08:51;;;;;;;;;;;;;;;10.00;100.00;99585.03;4992875;28;19918;-64
2023/01/13 13:14:02;;;;;;;;;;;;;;;10.14;100.00;99602.19;5015785;28;19976;-63
2023/01/13 13:16:28;;;;;;;;;;;;;;;10.12;100.00;99605.75;5000241;28;20357;-63
2023/01/13 13:19:12;;;;;;;;;;;;;;;9.89;100.00;99623.41;5001834;28;19961;-65
2023/01/13 13:21:56;;;;;;;;;;;;;;;9.60;100.00;99627.66;5013534;28;19978;-64
2023/01/13 13:24:21;;;;;;;;;;;;;;;9.27;100.00;99626.13;5002664;28;20012;-64
2023/01/13 13:26:46;;;;;;;;;;;;;;;9.33;100.00;99648.88;5005977;28;20005;-63
2023/01/13 13:29:27;;;;;;;;;;;;;;;9.02;100.00;99661.69;5000807;28;20357;-63
2023/01/13 13:32:00;;;;;;;;;;;;;;;8.63;100.00;99655.22;5025822;28;19925;-63
2023/01/13 13:34:25;;;;;;;;;;;;;;;8.39;100.00;99657.34;5004301;28;19925;-65
2023/01/13 13:37:02;;;;;;;;;;;;;;;8.29;100.00;99643.38;5003644;28;19942;-63
2023/01/13 13:46:45;;;;;;;;;;;;;;;7.75;100.00;99658.00;5018092;28;19931;-63
2023/01/13 13:48:21;;;;;;;;;;;;;;;7.74;100.00;99656.34;5006751;28;20340;-62
2023/01/13 13:50:49;;;;;;;;;;;;;;;7.75;100.00;99673.38;5000635;28;21354;-62